sensor_id;sensor_type;location;lat;lon;timestamp;pressure;altitude;pressure_sealevel;temperature
67758;BMP180;54562;47.620;18.786;2022-10-16T00:01:45;98908.20;;;13.70
67758;BMP180;54562;47.620;18.786;2022-10-16T00:04:54;98902.40;;;13.70
67758;BMP180;54562;47.620;18.786;2022-10-16T00:08:02;98907.00;;;13.70
67758;BMP180;54562;47.620;18.786;2022-10-16T00:14:17;98914.80;;;13.60
67758;BMP180;54562;47.620;18.786;2022-10-16T00:17:25;98914.40;;;13.54
67758;BMP180;54562;47.620;18.786;2022-10-16T00:20:34;98908.60;;;13.50
67758;BMP180;54562;47.620;18.786;2022-10-16T00:23:43;98918.20;;;13.42
67758;BMP180;54562;47.620;18.786;2022-10-16T00:26:52;98922.40;;;13.40
67758;BMP180;54562;47.620;18.786;2022-10-16T00:30:01;98920.80;;;13.38
67758;BMP180;54562;47.620;18.786;2022-10-16T00:33:10;98921.20;;;13.30
67758;BMP180;54562;47.620;18.786;2022-10-16T00:36:21;98921.00;;;13.24
67758;BMP180;54562;47.620;18.786;2022-10-16T00:39:29;98924.20;;;13.20
67758;BMP180;54562;47.620;18.786;2022-10-16T00:42:37;98922.80;;;13.20
67758;BMP180;54562;47.620;18.786;2022-10-16T00:45:45;98924.60;;;13.10
67758;BMP180;54562;47.620;18.786;2022-10-16T00:49:02;98926.40;;;13.10
67758;BMP180;54562;47.620;18.786;2022-10-16T00:52:11;98930.20;;;13.02
67758;BMP180;54562;47.620;18.786;2022-10-16T00:55:20;98933.60;;;13.00
67758;BMP180;54562;47.620;18.786;2022-10-16T00:58:28;98930.60;;;13.00
67758;BMP180;54562;47.620;18.786;2022-10-16T01:01:37;98932.40;;;12.90
67758;BMP180;54562;47.620;18.786;2022-10-16T01:04:49;98940.80;;;12.90
67758;BMP180;54562;47.620;18.786;2022-10-16T01:08:08;98947.60;;;12.80
67758;BMP180;54562;47.620;18.786;2022-10-16T01:11:25;98955.80;;;12.70
67758;BMP180;54562;47.620;18.786;2022-10-16T01:14:45;98948.20;;;12.62
67758;BMP180;54562;47.620;18.786;2022-10-16T01:18:03;98949.40;;;12.60
67758;BMP180;54562;47.620;18.786;2022-10-16T01:21:19;98946.40;;;12.60
67758;BMP180;54562;47.620;18.786;2022-10-16T01:24:41;98940.40;;;12.52
67758;BMP180;54562;47.620;18.786;2022-10-16T01:27:58;98941.20;;;12.50
67758;BMP180;54562;47.620;18.786;2022-10-16T01:31:08;98942.80;;;12.50
67758;BMP180;54562;47.620;18.786;2022-10-16T01:34:21;98943.00;;;12.40
67758;BMP180;54562;47.620;18.786;2022-10-16T01:37:39;98940.20;;;12.40
67758;BMP180;54562;47.620;18.786;2022-10-16T01:40:55;98949.60;;;12.40
67758;BMP180;54562;47.620;18.786;2022-10-16T01:44:10;98954.00;;;12.30
67758;BMP180;54562;47.620;18.786;2022-10-16T01:47:25;98960.20;;;12.30
67758;BMP180;54562;47.620;18.786;2022-10-16T01:50:37;98959.20;;;12.20
67758;BMP180;54562;47.620;18.786;2022-10-16T01:53:52;98961.40;;;12.20
67758;BMP180;54562;47.620;18.786;2022-10-16T01:57:02;98963.80;;;12.10
67758;BMP180;54562;47.620;18.786;2022-10-16T02:00:15;98971.60;;;12.00
67758;BMP180;54562;47.620;18.786;2022-10-16T02:03:24;98964.60;;;11.90
67758;BMP180;54562;47.620;18.786;2022-10-16T02:06:33;98961.80;;;11.80
67758;BMP180;54562;47.620;18.786;2022-10-16T02:09:42;98964.80;;;11.70
67758;BMP180;54562;47.620;18.786;2022-10-16T02:12:58;98969.20;;;11.60
67758;BMP180;54562;47.620;18.786;2022-10-16T02:16:10;98964.20;;;11.50
67758;BMP180;54562;47.620;18.786;2022-10-16T02:19:20;98971.00;;;11.48
67758;BMP180;54562;47.620;18.786;2022-10-16T02:22:34;98974.00;;;11.40
67758;BMP180;54562;47.620;18.786;2022-10-16T02:25:45;98971.80;;;11.30
67758;BMP180;54562;47.620;18.786;2022-10-16T02:29:00;98972.60;;;11.20
67758;BMP180;54562;47.620;18.786;2022-10-16T02:32:14;98971.20;;;11.20
67758;BMP180;54562;47.620;18.786;2022-10-16T02:35:25;98972.60;;;11.10
67758;BMP180;54562;47.620;18.786;2022-10-16T02:38:34;98968.60;;;11.10
67758;BMP180;54562;47.620;18.786;2022-10-16T02:41:42;98972.40;;;11.00
67758;BMP180;54562;47.620;18.786;2022-10-16T02:44:51;98977.00;;;11.00
67758;BMP180;54562;47.620;18.786;2022-10-16T02:47:59;98978.80;;;10.90
67758;BMP180;54562;47.620;18.786;2022-10-16T02:51:09;98981.80;;;10.88
67758;BMP180;54562;47.620;18.786;2022-10-16T02:54:17;98984.80;;;10.80
67758;BMP180;54562;47.620;18.786;2022-10-16T02:57:25;98990.20;;;10.80
67758;BMP180;54562;47.620;18.786;2022-10-16T03:00:34;98996.80;;;10.78
67758;BMP180;54562;47.620;18.786;2022-10-16T03:03:42;99000.40;;;10.70
67758;BMP180;54562;47.620;18.786;2022-10-16T03:06:51;99003.40;;;10.70
67758;BMP180;54562;47.620;18.786;2022-10-16T03:09:59;99002.40;;;10.62
67758;BMP180;54562;47.620;18.786;2022-10-16T03:13:07;99005.00;;;10.58
67758;BMP180;54562;47.620;18.786;2022-10-16T03:16:15;99009.20;;;10.50
67758;BMP180;54562;47.620;18.786;2022-10-16T03:19:24;99003.20;;;10.44
67758;BMP180;54562;47.620;18.786;2022-10-16T03:22:32;99006.20;;;10.40
67758;BMP180;54562;47.620;18.786;2022-10-16T03:25:40;99005.80;;;10.38
67758;BMP180;54562;47.620;18.786;2022-10-16T03:28:48;99005.40;;;10.30
67758;BMP180;54562;47.620;18.786;2022-10-16T03:31:57;99011.40;;;10.20
67758;BMP180;54562;47.620;18.786;2022-10-16T03:35:07;99010.60;;;10.20
67758;BMP180;54562;47.620;18.786;2022-10-16T03:38:15;99019.00;;;10.18
67758;BMP180;54562;47.620;18.786;2022-10-16T03:41:24;99023.40;;;10.10
67758;BMP180;54562;47.620;18.786;2022-10-16T03:44:33;99017.40;;;10.10
67758;BMP180;54562;47.620;18.786;2022-10-16T03:47:42;99024.20;;;10.10
67758;BMP180;54562;47.620;18.786;2022-10-16T03:50:51;99024.60;;;10.04
67758;BMP180;54562;47.620;18.786;2022-10-16T03:53:59;99025.80;;;10.00
67758;BMP180;54562;47.620;18.786;2022-10-16T03:57:09;99021.40;;;10.00
67758;BMP180;54562;47.620;18.786;2022-10-16T04:00:18;99023.20;;;9.92
67758;BMP180;54562;47.620;18.786;2022-10-16T04:03:26;99030.40;;;9.90
67758;BMP180;54562;47.620;18.786;2022-10-16T04:06:35;99034.00;;;9.90
67758;BMP180;54562;47.620;18.786;2022-10-16T04:09:43;99027.60;;;9.90
67758;BMP180;54562;47.620;18.786;2022-10-16T04:12:52;99033.00;;;9.82
67758;BMP180;54562;47.620;18.786;2022-10-16T04:16:03;99044.00;;;9.80
67758;BMP180;54562;47.620;18.786;2022-10-16T04:19:13;99044.20;;;9.80
67758;BMP180;54562;47.620;18.786;2022-10-16T04:22:22;99053.00;;;9.80
67758;BMP180;54562;47.620;18.786;2022-10-16T04:25:36;99046.60;;;9.78
67758;BMP180;54562;47.620;18.786;2022-10-16T04:28:45;99044.60;;;9.70
67758;BMP180;54562;47.620;18.786;2022-10-16T04:31:53;99041.60;;;9.70
67758;BMP180;54562;47.620;18.786;2022-10-16T04:35:02;99043.80;;;9.60
67758;BMP180;54562;47.620;18.786;2022-10-16T04:38:12;99046.20;;;9.60
67758;BMP180;54562;47.620;18.786;2022-10-16T04:41:19;99042.60;;;9.52
67758;BMP180;54562;47.620;18.786;2022-10-16T04:44:30;99036.00;;;9.50
67758;BMP180;54562;47.620;18.786;2022-10-16T04:47:39;99041.80;;;9.40
67758;BMP180;54562;47.620;18.786;2022-10-16T04:50:48;99037.40;;;9.40
67758;BMP180;54562;47.620;18.786;2022-10-16T04:54:02;99039.80;;;9.40
67758;BMP180;54562;47.620;18.786;2022-10-16T04:57:11;99038.40;;;9.30
67758;BMP180;54562;47.620;18.786;2022-10-16T05:00:19;99035.00;;;9.30
67758;BMP180;54562;47.620;18.786;2022-10-16T05:03:29;99035.80;;;9.30
67758;BMP180;54562;47.620;18.786;2022-10-16T05:06:40;99041.20;;;9.30
67758;BMP180;54562;47.620;18.786;2022-10-16T05:09:48;99047.60;;;9.30
67758;BMP180;54562;47.620;18.786;2022-10-16T05:12:59;99045.40;;;9.30
67758;BMP180;54562;47.620;18.786;2022-10-16T05:19:14;99049.80;;;9.30
67758;BMP180;54562;47.620;18.786;2022-10-16T05:22:38;99053.40;;;9.30
67758;BMP180;54562;47.620;18.786;2022-10-16T05:25:53;99058.80;;;9.30
67758;BMP180;54562;47.620;18.786;2022-10-16T05:29:02;99051.60;;;9.30
67758;BMP180;54562;47.620;18.786;2022-10-16T05:32:11;99050.00;;;9.30
67758;BMP180;54562;47.620;18.786;2022-10-16T05:35:21;99050.60;;;9.30
67758;BMP180;54562;47.620;18.786;2022-10-16T05:38:30;99055.00;;;9.38
67758;BMP180;54562;47.620;18.786;2022-10-16T05:41:38;99060.40;;;9.40
67758;BMP180;54562;47.620;18.786;2022-10-16T05:44:46;99059.80;;;9.40
67758;BMP180;54562;47.620;18.786;2022-10-16T05:47:56;99069.40;;;9.40
67758;BMP180;54562;47.620;18.786;2022-10-16T05:51:05;99071.80;;;9.50
67758;BMP180;54562;47.620;18.786;2022-10-16T05:54:14;99077.40;;;9.60
67758;BMP180;54562;47.620;18.786;2022-10-16T05:57:22;99085.60;;;9.70
67758;BMP180;54562;47.620;18.786;2022-10-16T06:00:31;99088.20;;;9.80
67758;BMP180;54562;47.620;18.786;2022-10-16T06:03:40;99084.00;;;9.90
67758;BMP180;54562;47.620;18.786;2022-10-16T06:06:48;99079.00;;;10.10
67758;BMP180;54562;47.620;18.786;2022-10-16T06:09:56;99084.40;;;10.30
67758;BMP180;54562;47.620;18.786;2022-10-16T06:13:05;99097.20;;;10.50
67758;BMP180;54562;47.620;18.786;2022-10-16T06:16:14;99102.80;;;10.70
67758;BMP180;54562;47.620;18.786;2022-10-16T06:19:23;99110.20;;;10.86
67758;BMP180;54562;47.620;18.786;2022-10-16T06:22:32;99111.60;;;11.00
67758;BMP180;54562;47.620;18.786;2022-10-16T06:25:41;99120.20;;;11.20
67758;BMP180;54562;47.620;18.786;2022-10-16T06:28:50;99122.20;;;11.36
67758;BMP180;54562;47.620;18.786;2022-10-16T06:31:58;99122.60;;;11.50
67758;BMP180;54562;47.620;18.786;2022-10-16T06:35:08;99128.40;;;11.60
67758;BMP180;54562;47.620;18.786;2022-10-16T06:38:20;99141.00;;;11.80
67758;BMP180;54562;47.620;18.786;2022-10-16T06:41:28;99133.40;;;11.90
67758;BMP180;54562;47.620;18.786;2022-10-16T06:44:36;99144.20;;;12.00
67758;BMP180;54562;47.620;18.786;2022-10-16T06:47:47;99150.20;;;12.10
67758;BMP180;54562;47.620;18.786;2022-10-16T06:51:04;99159.00;;;12.26
67758;BMP180;54562;47.620;18.786;2022-10-16T06:54:14;99161.40;;;12.40
67758;BMP180;54562;47.620;18.786;2022-10-16T06:57:22;99168.00;;;12.50
67758;BMP180;54562;47.620;18.786;2022-10-16T07:00:30;99169.40;;;12.60
67758;BMP180;54562;47.620;18.786;2022-10-16T07:03:42;99165.60;;;12.70
67758;BMP180;54562;47.620;18.786;2022-10-16T07:06:51;99165.00;;;12.80
67758;BMP180;54562;47.620;18.786;2022-10-16T07:09:59;99166.80;;;12.90
67758;BMP180;54562;47.620;18.786;2022-10-16T07:13:06;99172.40;;;13.00
67758;BMP180;54562;47.620;18.786;2022-10-16T07:16:17;99172.20;;;13.10
67758;BMP180;54562;47.620;18.786;2022-10-16T07:19:29;99171.20;;;13.20
67758;BMP180;54562;47.620;18.786;2022-10-16T07:22:40;99176.20;;;13.30
67758;BMP180;54562;47.620;18.786;2022-10-16T07:25:54;99178.40;;;13.40
67758;BMP180;54562;47.620;18.786;2022-10-16T07:29:04;99185.60;;;13.48
67758;BMP180;54562;47.620;18.786;2022-10-16T07:32:13;99198.40;;;13.54
67758;BMP180;54562;47.620;18.786;2022-10-16T07:35:22;99205.40;;;13.66
67758;BMP180;54562;47.620;18.786;2022-10-16T07:38:30;99207.20;;;13.80
67758;BMP180;54562;47.620;18.786;2022-10-16T07:41:38;99209.20;;;13.90
67758;BMP180;54562;47.620;18.786;2022-10-16T07:44:46;99213.60;;;13.90
67758;BMP180;54562;47.620;18.786;2022-10-16T07:47:54;99218.80;;;14.00
67758;BMP180;54562;47.620;18.786;2022-10-16T07:51:05;99219.40;;;14.10
67758;BMP180;54562;47.620;18.786;2022-10-16T07:54:13;99216.20;;;14.20
67758;BMP180;54562;47.620;18.786;2022-10-16T07:57:21;99214.80;;;14.30
67758;BMP180;54562;47.620;18.786;2022-10-16T08:00:30;99217.00;;;14.40
67758;BMP180;54562;47.620;18.786;2022-10-16T08:03:40;99213.80;;;14.40
67758;BMP180;54562;47.620;18.786;2022-10-16T08:06:49;99212.40;;;14.60
67758;BMP180;54562;47.620;18.786;2022-10-16T08:09:57;99211.80;;;14.78
67758;BMP180;54562;47.620;18.786;2022-10-16T08:13:06;99210.00;;;14.90
67758;BMP180;54562;47.620;18.786;2022-10-16T08:16:14;99215.40;;;15.00
67758;BMP180;54562;47.620;18.786;2022-10-16T08:19:23;99225.80;;;15.20
67758;BMP180;54562;47.620;18.786;2022-10-16T08:22:31;99234.20;;;15.30
67758;BMP180;54562;47.620;18.786;2022-10-16T08:25:39;99241.80;;;15.40
67758;BMP180;54562;47.620;18.786;2022-10-16T08:28:50;99243.80;;;15.50
67758;BMP180;54562;47.620;18.786;2022-10-16T08:31:59;99244.00;;;15.64
67758;BMP180;54562;47.620;18.786;2022-10-16T08:35:09;99249.80;;;15.80
67758;BMP180;54562;47.620;18.786;2022-10-16T08:38:18;99256.00;;;15.86
67758;BMP180;54562;47.620;18.786;2022-10-16T08:42:07;99257.40;;;15.90
67758;BMP180;54562;47.620;18.786;2022-10-16T08:45:40;99259.80;;;16.02
67758;BMP180;54562;47.620;18.786;2022-10-16T08:48:53;99263.40;;;16.20
67758;BMP180;54562;47.620;18.786;2022-10-16T08:52:02;99256.00;;;16.10
67758;BMP180;54562;47.620;18.786;2022-10-16T08:55:30;99256.20;;;16.00
67758;BMP180;54562;47.620;18.786;2022-10-16T08:58:38;99259.60;;;16.00
67758;BMP180;54562;47.620;18.786;2022-10-16T09:01:49;99261.00;;;16.00
67758;BMP180;54562;47.620;18.786;2022-10-16T09:08:42;99254.80;;;15.90
67758;BMP180;54562;47.620;18.786;2022-10-16T09:12:00;99257.40;;;16.00
67758;BMP180;54562;47.620;18.786;2022-10-16T09:15:27;99266.80;;;16.00
67758;BMP180;54562;47.620;18.786;2022-10-16T09:18:45;99266.20;;;16.20
67758;BMP180;54562;47.620;18.786;2022-10-16T09:21:57;99272.00;;;16.40
67758;BMP180;54562;47.620;18.786;2022-10-16T09:25:16;99277.40;;;16.60
67758;BMP180;54562;47.620;18.786;2022-10-16T09:28:24;99282.40;;;16.80
67758;BMP180;54562;47.620;18.786;2022-10-16T09:31:33;99280.60;;;17.00
67758;BMP180;54562;47.620;18.786;2022-10-16T09:34:49;99288.60;;;17.24
67758;BMP180;54562;47.620;18.786;2022-10-16T09:37:58;99287.20;;;17.30
67758;BMP180;54562;47.620;18.786;2022-10-16T09:41:18;99285.00;;;17.20
67758;BMP180;54562;47.620;18.786;2022-10-16T09:44:30;99286.40;;;17.10
67758;BMP180;54562;47.620;18.786;2022-10-16T09:47:44;99287.00;;;17.10
67758;BMP180;54562;47.620;18.786;2022-10-16T09:51:02;99281.20;;;17.00
67758;BMP180;54562;47.620;18.786;2022-10-16T09:54:19;99276.60;;;16.90
67758;BMP180;54562;47.620;18.786;2022-10-16T09:57:28;99274.60;;;17.00
67758;BMP180;54562;47.620;18.786;2022-10-16T10:00:37;99277.20;;;17.10
67758;BMP180;54562;47.620;18.786;2022-10-16T10:03:49;99276.80;;;17.24
67758;BMP180;54562;47.620;18.786;2022-10-16T10:07:00;99276.20;;;17.40
67758;BMP180;54562;47.620;18.786;2022-10-16T10:10:23;99276.60;;;17.60
67758;BMP180;54562;47.620;18.786;2022-10-16T10:13:31;99273.80;;;17.78
67758;BMP180;54562;47.620;18.786;2022-10-16T10:16:39;99271.00;;;17.90
67758;BMP180;54562;47.620;18.786;2022-10-16T10:19:52;99273.00;;;18.04
67758;BMP180;54562;47.620;18.786;2022-10-16T10:23:01;99272.40;;;18.22
67758;BMP180;54562;47.620;18.786;2022-10-16T10:26:16;99272.60;;;18.40
67758;BMP180;54562;47.620;18.786;2022-10-16T10:29:49;99271.00;;;18.52
67758;BMP180;54562;47.620;18.786;2022-10-16T10:33:16;99270.00;;;18.62
67758;BMP180;54562;47.620;18.786;2022-10-16T10:36:34;99272.40;;;18.70
67758;BMP180;54562;47.620;18.786;2022-10-16T10:39:52;99279.20;;;18.84
67758;BMP180;54562;47.620;18.786;2022-10-16T10:43:07;99277.20;;;19.00
67758;BMP180;54562;47.620;18.786;2022-10-16T10:46:26;99284.40;;;19.00
67758;BMP180;54562;47.620;18.786;2022-10-16T10:49:53;99285.00;;;19.10
67758;BMP180;54562;47.620;18.786;2022-10-16T10:53:14;99281.40;;;19.20
67758;BMP180;54562;47.620;18.786;2022-10-16T10:56:44;99281.00;;;19.40
67758;BMP180;54562;47.620;18.786;2022-10-16T11:00:08;99272.60;;;19.38
67758;BMP180;54562;47.620;18.786;2022-10-16T11:03:35;99272.80;;;19.40
67758;BMP180;54562;47.620;18.786;2022-10-16T11:06:52;99274.80;;;19.58
67758;BMP180;54562;47.620;18.786;2022-10-16T11:10:12;99269.60;;;19.60
67758;BMP180;54562;47.620;18.786;2022-10-16T11:13:31;99263.80;;;19.70
67758;BMP180;54562;47.620;18.786;2022-10-16T11:16:45;99263.60;;;19.90
67758;BMP180;54562;47.620;18.786;2022-10-16T11:20:03;99261.20;;;19.94
67758;BMP180;54562;47.620;18.786;2022-10-16T11:23:21;99256.40;;;20.00
67758;BMP180;54562;47.620;18.786;2022-10-16T11:26:38;99265.40;;;20.00
67758;BMP180;54562;47.620;18.786;2022-10-16T11:29:55;99269.20;;;20.10
67758;BMP180;54562;47.620;18.786;2022-10-16T11:33:25;99268.60;;;20.30
67758;BMP180;54562;47.620;18.786;2022-10-16T11:36:42;99273.00;;;20.40
67758;BMP180;54562;47.620;18.786;2022-10-16T11:39:56;99271.60;;;20.40
67758;BMP180;54562;47.620;18.786;2022-10-16T11:43:20;99270.20;;;20.28
67758;BMP180;54562;47.620;18.786;2022-10-16T11:46:30;99266.80;;;20.10
67758;BMP180;54562;47.620;18.786;2022-10-16T11:49:43;99263.80;;;20.20
67758;BMP180;54562;47.620;18.786;2022-10-16T11:53:00;99263.40;;;20.26
67758;BMP180;54562;47.620;18.786;2022-10-16T11:56:09;99268.20;;;20.30
67758;BMP180;54562;47.620;18.786;2022-10-16T11:59:28;99260.20;;;20.10
67758;BMP180;54562;47.620;18.786;2022-10-16T12:02:52;99258.00;;;19.80
67758;BMP180;54562;47.620;18.786;2022-10-16T12:06:31;99262.60;;;19.80
67758;BMP180;54562;47.620;18.786;2022-10-16T12:09:42;99262.80;;;19.80
67758;BMP180;54562;47.620;18.786;2022-10-16T12:12:51;99255.00;;;19.80
67758;BMP180;54562;47.620;18.786;2022-10-16T12:16:24;99252.60;;;19.90
67758;BMP180;54562;47.620;18.786;2022-10-16T12:19:33;99252.60;;;19.90
67758;BMP180;54562;47.620;18.786;2022-10-16T12:22:51;99249.20;;;20.00
67758;BMP180;54562;47.620;18.786;2022-10-16T12:26:02;99245.60;;;20.00
67758;BMP180;54562;47.620;18.786;2022-10-16T12:29:26;99248.00;;;20.00
67758;BMP180;54562;47.620;18.786;2022-10-16T12:32:39;99242.00;;;20.00
67758;BMP180;54562;47.620;18.786;2022-10-16T12:35:54;99245.80;;;20.00
67758;BMP180;54562;47.620;18.786;2022-10-16T12:39:05;99251.40;;;20.00
67758;BMP180;54562;47.620;18.786;2022-10-16T12:42:36;99252.80;;;20.14
67758;BMP180;54562;47.620;18.786;2022-10-16T12:45:47;99254.00;;;20.28
67758;BMP180;54562;47.620;18.786;2022-10-16T12:49:20;99254.60;;;20.30
67758;BMP180;54562;47.620;18.786;2022-10-16T12:52:39;99254.60;;;20.44
67758;BMP180;54562;47.620;18.786;2022-10-16T12:56:00;99259.40;;;20.60
67758;BMP180;54562;47.620;18.786;2022-10-16T12:59:24;99257.20;;;20.70
67758;BMP180;54562;47.620;18.786;2022-10-16T13:02:59;99261.80;;;21.00
67758;BMP180;54562;47.620;18.786;2022-10-16T13:06:38;99266.60;;;21.16
67758;BMP180;54562;47.620;18.786;2022-10-16T13:10:02;99267.20;;;21.40
67758;BMP180;54562;47.620;18.786;2022-10-16T13:13:38;99272.80;;;21.60
67758;BMP180;54562;47.620;18.786;2022-10-16T13:17:04;99279.60;;;21.80
67758;BMP180;54562;47.620;18.786;2022-10-16T13:20:26;99267.40;;;21.62
67758;BMP180;54562;47.620;18.786;2022-10-16T13:23:45;99277.00;;;21.70
67758;BMP180;54562;47.620;18.786;2022-10-16T13:27:06;99270.00;;;21.70
67758;BMP180;54562;47.620;18.786;2022-10-16T13:30:23;99273.40;;;21.80
67758;BMP180;54562;47.620;18.786;2022-10-16T13:33:39;99275.60;;;21.80
67758;BMP180;54562;47.620;18.786;2022-10-16T13:36:51;99270.40;;;21.68
67758;BMP180;54562;47.620;18.786;2022-10-16T13:40:20;99271.80;;;21.66
67758;BMP180;54562;47.620;18.786;2022-10-16T13:43:34;99275.40;;;21.60
67758;BMP180;54562;47.620;18.786;2022-10-16T13:46:42;99275.60;;;21.60
67758;BMP180;54562;47.620;18.786;2022-10-16T13:50:04;99282.40;;;21.70
67758;BMP180;54562;47.620;18.786;2022-10-16T13:53:16;99282.40;;;21.78
67758;BMP180;54562;47.620;18.786;2022-10-16T13:56:27;99278.00;;;21.60
67758;BMP180;54562;47.620;18.786;2022-10-16T13:59:38;99279.00;;;21.50
67758;BMP180;54562;47.620;18.786;2022-10-16T14:02:54;99277.40;;;21.40
67758;BMP180;54562;47.620;18.786;2022-10-16T14:06:06;99281.00;;;21.30
67758;BMP180;54562;47.620;18.786;2022-10-16T14:09:26;99281.00;;;21.20
67758;BMP180;54562;47.620;18.786;2022-10-16T14:12:35;99286.40;;;21.06
67758;BMP180;54562;47.620;18.786;2022-10-16T14:15:51;99289.80;;;20.90
67758;BMP180;54562;47.620;18.786;2022-10-16T14:19:03;99285.60;;;20.70
67758;BMP180;54562;47.620;18.786;2022-10-16T14:22:29;99290.00;;;20.50
67758;BMP180;54562;47.620;18.786;2022-10-16T14:25:39;99291.80;;;20.30
67758;BMP180;54562;47.620;18.786;2022-10-16T14:28:51;99299.60;;;20.10
67758;BMP180;54562;47.620;18.786;2022-10-16T14:32:24;99298.80;;;20.00
67758;BMP180;54562;47.620;18.786;2022-10-16T14:35:36;99307.20;;;19.80
67758;BMP180;54562;47.620;18.786;2022-10-16T14:38:59;99301.80;;;19.70
67758;BMP180;54562;47.620;18.786;2022-10-16T14:42:16;99302.40;;;19.58
67758;BMP180;54562;47.620;18.786;2022-10-16T14:45:29;99301.20;;;19.48
67758;BMP180;54562;47.620;18.786;2022-10-16T14:48:41;99307.20;;;19.38
67758;BMP180;54562;47.620;18.786;2022-10-16T14:51:51;99305.20;;;19.24
67758;BMP180;54562;47.620;18.786;2022-10-16T14:54:59;99301.20;;;19.10
67758;BMP180;54562;47.620;18.786;2022-10-16T14:58:11;99306.40;;;19.02
67758;BMP180;54562;47.620;18.786;2022-10-16T15:01:22;99306.80;;;18.90
67758;BMP180;54562;47.620;18.786;2022-10-16T15:04:30;99317.20;;;18.80
67758;BMP180;54562;47.620;18.786;2022-10-16T15:07:38;99318.60;;;18.72
67758;BMP180;54562;47.620;18.786;2022-10-16T15:10:47;99321.20;;;18.60
67758;BMP180;54562;47.620;18.786;2022-10-16T15:13:55;99323.80;;;18.58
67758;BMP180;54562;47.620;18.786;2022-10-16T15:17:03;99321.00;;;18.50
67758;BMP180;54562;47.620;18.786;2022-10-16T15:20:12;99322.40;;;18.40
67758;BMP180;54562;47.620;18.786;2022-10-16T15:23:22;99321.60;;;18.30
67758;BMP180;54562;47.620;18.786;2022-10-16T15:26:32;99317.20;;;18.14
67758;BMP180;54562;47.620;18.786;2022-10-16T15:29:40;99325.00;;;18.00
67758;BMP180;54562;47.620;18.786;2022-10-16T15:32:48;99319.00;;;17.90
67758;BMP180;54562;47.620;18.786;2022-10-16T15:35:57;99324.60;;;17.80
67758;BMP180;54562;47.620;18.786;2022-10-16T15:39:06;99325.80;;;17.70
67758;BMP180;54562;47.620;18.786;2022-10-16T15:42:18;99327.00;;;17.60
67758;BMP180;54562;47.620;18.786;2022-10-16T15:45:27;99327.80;;;17.50
67758;BMP180;54562;47.620;18.786;2022-10-16T15:48:35;99336.80;;;17.40
67758;BMP180;54562;47.620;18.786;2022-10-16T15:51:44;99347.60;;;17.24
67758;BMP180;54562;47.620;18.786;2022-10-16T15:54:53;99347.80;;;17.10
67758;BMP180;54562;47.620;18.786;2022-10-16T15:58:02;99354.40;;;17.00
67758;BMP180;54562;47.620;18.786;2022-10-16T16:01:10;99361.80;;;16.90
67758;BMP180;54562;47.620;18.786;2022-10-16T16:04:18;99363.20;;;16.80
67758;BMP180;54562;47.620;18.786;2022-10-16T16:07:48;99363.80;;;16.70
67758;BMP180;54562;47.620;18.786;2022-10-16T16:11:05;99365.40;;;16.60
67758;BMP180;54562;47.620;18.786;2022-10-16T16:14:15;99373.40;;;16.50
67758;BMP180;54562;47.620;18.786;2022-10-16T16:17:23;99375.40;;;16.34
67758;BMP180;54562;47.620;18.786;2022-10-16T16:20:31;99383.20;;;16.20
67758;BMP180;54562;47.620;18.786;2022-10-16T16:23:39;99380.00;;;16.06
67758;BMP180;54562;47.620;18.786;2022-10-16T16:26:48;99382.60;;;15.90
67758;BMP180;54562;47.620;18.786;2022-10-16T16:29:57;99386.40;;;15.80
67758;BMP180;54562;47.620;18.786;2022-10-16T16:33:05;99388.20;;;15.70
67758;BMP180;54562;47.620;18.786;2022-10-16T16:36:13;99394.80;;;15.60
67758;BMP180;54562;47.620;18.786;2022-10-16T16:39:21;99395.20;;;15.50
67758;BMP180;54562;47.620;18.786;2022-10-16T16:42:30;99392.20;;;15.40
67758;BMP180;54562;47.620;18.786;2022-10-16T16:45:39;99399.40;;;15.30
67758;BMP180;54562;47.620;18.786;2022-10-16T16:48:49;99403.20;;;15.20
67758;BMP180;54562;47.620;18.786;2022-10-16T16:51:58;99403.40;;;15.20
67758;BMP180;54562;47.620;18.786;2022-10-16T16:55:08;99411.20;;;15.20
67758;BMP180;54562;47.620;18.786;2022-10-16T16:58:16;99420.40;;;15.20
67758;BMP180;54562;47.620;18.786;2022-10-16T17:01:27;99419.00;;;15.10
67758;BMP180;54562;47.620;18.786;2022-10-16T17:04:36;99421.20;;;15.10
67758;BMP180;54562;47.620;18.786;2022-10-16T17:07:44;99429.60;;;15.00
67758;BMP180;54562;47.620;18.786;2022-10-16T17:10:53;99430.60;;;15.00
67758;BMP180;54562;47.620;18.786;2022-10-16T17:14:02;99437.00;;;14.90
67758;BMP180;54562;47.620;18.786;2022-10-16T17:17:10;99436.40;;;14.90
67758;BMP180;54562;47.620;18.786;2022-10-16T17:20:18;99439.60;;;14.80
67758;BMP180;54562;47.620;18.786;2022-10-16T17:23:27;99448.60;;;14.70
67758;BMP180;54562;47.620;18.786;2022-10-16T17:26:35;99453.80;;;14.70
67758;BMP180;54562;47.620;18.786;2022-10-16T17:29:51;99458.80;;;14.64
67758;BMP180;54562;47.620;18.786;2022-10-16T17:32:59;99461.80;;;14.78
67758;BMP180;54562;47.620;18.786;2022-10-16T17:36:08;99461.60;;;14.84
67758;BMP180;54562;47.620;18.786;2022-10-16T17:39:18;99461.40;;;14.82
67758;BMP180;54562;47.620;18.786;2022-10-16T17:42:26;99471.40;;;14.88
67758;BMP180;54562;47.620;18.786;2022-10-16T17:45:39;99469.20;;;14.90
67758;BMP180;54562;47.620;18.786;2022-10-16T17:48:49;99476.00;;;14.96
67758;BMP180;54562;47.620;18.786;2022-10-16T17:51:59;99477.60;;;15.00
67758;BMP180;54562;47.620;18.786;2022-10-16T17:55:10;99480.80;;;15.00
67758;BMP180;54562;47.620;18.786;2022-10-16T17:58:18;99479.20;;;15.00
67758;BMP180;54562;47.620;18.786;2022-10-16T18:01:28;99477.80;;;14.94
67758;BMP180;54562;47.620;18.786;2022-10-16T18:04:36;99478.80;;;14.86
67758;BMP180;54562;47.620;18.786;2022-10-16T18:07:45;99477.40;;;14.80
67758;BMP180;54562;47.620;18.786;2022-10-16T18:10:53;99477.40;;;14.80
67758;BMP180;54562;47.620;18.786;2022-10-16T18:14:02;99481.40;;;14.80
67758;BMP180;54562;47.620;18.786;2022-10-16T18:17:10;99479.60;;;14.80
67758;BMP180;54562;47.620;18.786;2022-10-16T18:20:19;99486.00;;;14.80
67758;BMP180;54562;47.620;18.786;2022-10-16T18:23:28;99492.00;;;14.70
67758;BMP180;54562;47.620;18.786;2022-10-16T18:26:37;99493.00;;;14.60